Time;durP1;ratioP1;P1;durP2;ratioP2;P2;SDS_P1;SDS_P2;PMS_P1;PMS_P2;Temp;Humidity;BMP_temperature;BMP_pressure;BME280_temperature;BME280_humidity;BME280_pressure;Samples;Min_cycle;Max_cycle;Signal;HPM_P1;HPM_P2
2021/06/13 00:00:10;;;;;;;4.50;3.77;;;22.20;99.90;;;;;;4981127;28;20481;-78
2021/06/13 00:02:37;;;;;;;4.23;3.83;;;22.10;99.90;;;;;;4993134;28;20944;-80
2021/06/13 00:05:06;;;;;;;4.77;4.33;;;22.10;99.90;;;;;;4987676;28;20487;-81
2021/06/13 00:07:35;;;;;;;6.10;4.30;;;22.10;99.90;;;;;;4970466;28;20552;-80
2021/06/13 00:10:03;;;;;;;4.03;3.43;;;22.10;99.90;;;;;;4970650;28;20537;-80
2021/06/13 00:12:31;;;;;;;4.77;4.20;;;22.10;99.90;;;;;;4956353;28;20451;-78
2021/06/13 00:14:59;;;;;;;4.70;4.30;;;22.10;99.90;;;;;;4962816;28;20463;-78
2021/06/13 00:17:26;;;;;;;7.73;4.27;;;22.10;99.90;;;;;;4980773;28;20511;-78
2021/06/13 00:19:54;;;;;;;5.07;4.67;;;22.20;99.90;;;;;;4971152;28;20838;-79
2021/06/13 00:22:22;;;;;;;4.33;3.90;;;22.20;99.90;;;;;;4973611;28;20462;-81
2021/06/13 00:24:51;;;;;;;4.57;4.03;;;22.20;99.90;;;;;;4987139;28;20442;-78
2021/06/13 00:27:18;;;;;;;4.10;3.70;;;22.20;99.90;;;;;;4973071;28;20467;-78
2021/06/13 00:29:46;;;;;;;3.93;3.53;;;22.10;99.90;;;;;;4971782;28;20952;-81
2021/06/13 00:32:14;;;;;;;4.43;4.13;;;22.10;99.90;;;;;;4973206;28;20511;-78
2021/06/13 00:34:42;;;;;;;3.97;3.37;;;22.00;99.90;;;;;;4972205;28;20450;-78
2021/06/13 00:37:09;;;;;;;4.47;4.03;;;22.00;99.90;;;;;;4973082;28;20474;-79
2021/06/13 00:39:37;;;;;;;4.13;3.80;;;22.00;99.90;;;;;;4989853;28;20475;-77
2021/06/13 00:42:06;;;;;;;5.07;4.17;;;22.00;99.90;;;;;;4992194;28;20510;-79
2021/06/13 00:44:34;;;;;;;5.40;3.90;;;22.00;99.90;;;;;;4977457;28;20439;-81
2021/06/13 00:47:02;;;;;;;5.07;4.17;;;22.00;99.90;;;;;;4970885;28;20586;-80
2021/06/13 00:49:30;;;;;;;4.10;3.70;;;22.00;99.90;;;;;;4971535;28;20510;-77
2021/06/13 00:51:57;;;;;;;4.43;3.77;;;22.00;99.90;;;;;;4979263;28;20833;-78
2021/06/13 00:54:27;;;;;;;4.47;4.07;;;21.90;99.90;;;;;;4990477;28;20493;-80
2021/06/13 00:56:55;;;;;;;5.00;3.50;;;21.90;99.90;;;;;;4992144;28;20950;-81
2021/06/13 00:59:24;;;;;;;5.00;4.00;;;21.80;99.90;;;;;;4990632;28;20462;-79
2021/06/13 01:01:52;;;;;;;4.20;3.80;;;21.80;99.90;;;;;;4972071;28;20467;-80
2021/06/13 01:04:20;;;;;;;4.90;4.00;;;21.70;99.90;;;;;;4975756;28;20459;-79
2021/06/13 01:07:01;;;;;;;5.10;3.67;;;21.70;99.90;;;;;;4970917;28;20521;-78
2021/06/13 01:09:34;;;;;;;5.90;3.80;;;21.80;99.90;;;;;;4971849;28;20886;-78
2021/06/13 01:12:08;;;;;;;5.07;4.57;;;21.70;99.90;;;;;;4971984;28;20965;-81
2021/06/13 01:14:43;;;;;;;4.53;4.10;;;21.70;99.90;;;;;;4971902;28;20972;-80
2021/06/13 01:17:19;;;;;;;4.80;4.00;;;21.70;99.90;;;;;;4968514;28;20455;-82
2021/06/13 01:19:53;;;;;;;4.60;3.80;;;21.70;99.90;;;;;;4970491;28;20482;-79
2021/06/13 01:22:43;;;;;;;5.10;4.00;;;21.70;99.90;;;;;;4968333;28;20460;-80
2021/06/13 01:25:26;;;;;;;4.73;3.30;;;21.70;99.90;;;;;;4965487;28;20475;-79
2021/06/13 01:28:07;;;;;;;3.80;3.50;;;21.60;99.90;;;;;;4977896;28;20468;-81
2021/06/13 01:30:37;;;;;;;4.73;4.23;;;21.60;99.90;;;;;;4988784;28;20558;-81
2021/06/13 01:33:08;;;;;;;3.07;2.87;;;21.60;99.90;;;;;;4990102;28;20438;-77
2021/06/13 01:35:37;;;;;;;4.30;3.80;;;21.60;99.90;;;;;;4976601;28;20831;-83
2021/06/13 01:38:07;;;;;;;3.97;3.60;;;21.60;99.90;;;;;;4971209;28;20457;-77
2021/06/13 01:40:37;;;;;;;5.17;4.10;;;21.60;99.90;;;;;;4989566;28;20528;-78
2021/06/13 01:43:05;;;;;;;4.60;4.27;;;21.60;99.90;;;;;;4990496;28;20510;-80
2021/06/13 01:45:37;;;;;;;4.33;3.93;;;21.50;99.90;;;;;;4976548;28;20505;-78
2021/06/13 01:48:07;;;;;;;4.20;3.60;;;21.50;99.90;;;;;;4971132;28;20512;-77
2021/06/13 01:50:37;;;;;;;3.03;2.80;;;21.50;99.90;;;;;;4952269;28;20681;-78
2021/06/13 01:53:13;;;;;;;4.40;4.00;;;21.50;99.90;;;;;;4977592;28;20446;-80
2021/06/13 01:55:44;;;;;;;4.30;3.90;;;21.50;99.90;;;;;;4979416;28;20486;-79
2021/06/13 01:58:15;;;;;;;4.70;3.20;;;21.40;99.90;;;;;;4983872;28;20447;-79
2021/06/13 02:00:45;;;;;;;4.60;4.20;;;21.50;99.90;;;;;;4972327;28;20509;-81
2021/06/13 02:03:14;;;;;;;4.67;4.27;;;21.40;99.90;;;;;;4990569;28;20453;-80
2021/06/13 02:05:42;;;;;;;4.30;3.87;;;21.40;99.90;;;;;;4989121;28;20453;-80
2021/06/13 02:08:11;;;;;;;6.93;4.27;;;21.40;99.90;;;;;;4987175;28;20824;-80
2021/06/13 02:10:40;;;;;;;4.20;3.80;;;21.40;99.90;;;;;;4971577;28;20562;-81
2021/06/13 02:13:08;;;;;;;5.03;4.60;;;21.30;99.90;;;;;;4985467;28;20465;-80
2021/06/13 02:15:37;;;;;;;5.10;4.17;;;21.30;99.90;;;;;;4968915;28;20451;-79
2021/06/13 02:18:08;;;;;;;4.47;4.07;;;21.30;99.90;;;;;;4971464;28;20482;-82
2021/06/13 02:20:38;;;;;;;4.47;4.07;;;21.20;99.90;;;;;;4969011;28;20515;-83
2021/06/13 02:23:06;;;;;;;4.20;3.90;;;21.30;99.90;;;;;;4986073;28;20458;-81
2021/06/13 02:25:34;;;;;;;5.73;4.00;;;21.30;99.90;;;;;;4982040;28;20525;-78
2021/06/13 02:28:03;;;;;;;5.17;4.67;;;21.30;99.90;;;;;;4971440;28;21093;-80
2021/06/13 02:30:36;;;;;;;4.80;4.30;;;21.30;99.90;;;;;;4969513;28;20562;-79
2021/06/13 02:33:08;;;;;;;5.00;4.10;;;21.20;99.90;;;;;;4985771;28;20536;-79
2021/06/13 02:35:39;;;;;;;4.30;3.90;;;21.20;99.90;;;;;;4990262;28;20454;-80
2021/06/13 02:38:07;;;;;;;4.33;3.93;;;21.20;99.90;;;;;;4988949;28;20973;-77
2021/06/13 02:40:34;;;;;;;5.53;3.43;;;21.10;99.90;;;;;;4989330;28;20465;-78
2021/06/13 02:43:02;;;;;;;5.30;3.70;;;21.20;99.90;;;;;;4979767;28;20467;-81
2021/06/13 02:45:30;;;;;;;8.10;3.90;;;21.10;99.90;;;;;;4969925;28;20450;-79
2021/06/13 02:47:57;;;;;;;6.63;4.60;;;21.10;99.90;;;;;;4969890;28;20479;-80
2021/06/13 02:50:27;;;;;;;10.93;6.90;;;21.00;99.90;;;;;;4984861;28;20475;-80
2021/06/13 02:53:03;;;;;;;7.67;5.50;;;21.00;99.90;;;;;;4978893;28;20481;-80
2021/06/13 02:55:38;;;;;;;6.77;4.50;;;21.00;99.90;;;;;;4968618;28;20454;-80
2021/06/13 02:58:19;;;;;;;4.80;3.93;;;20.90;99.90;;;;;;4970827;28;20458;-80
2021/06/13 03:00:50;;;;;;;10.63;4.00;;;20.90;99.90;;;;;;4969727;28;21001;-81
2021/06/13 03:03:22;;;;;;;6.17;4.57;;;20.80;99.90;;;;;;4970827;28;20486;-79
2021/06/13 03:05:52;;;;;;;7.93;4.10;;;20.80;99.90;;;;;;4970183;28;20468;-80
2021/06/13 03:08:21;;;;;;;7.17;4.53;;;20.80;99.90;;;;;;4970363;28;20475;-80
2021/06/13 03:10:52;;;;;;;5.23;4.30;;;20.80;99.90;;;;;;4975488;28;20478;-77
2021/06/13 03:13:24;;;;;;;5.30;4.43;;;20.80;99.90;;;;;;4978860;28;20462;-79
2021/06/13 03:15:52;;;;;;;5.63;4.77;;;20.70;99.90;;;;;;4969236;28;20451;-79
2021/06/13 03:18:21;;;;;;;3.40;3.10;;;20.70;99.90;;;;;;4969738;28;20848;-79
2021/06/13 03:20:51;;;;;;;4.43;4.03;;;20.70;99.90;;;;;;4970058;28;20494;-79
2021/06/13 03:23:21;;;;;;;5.27;4.00;;;20.70;99.90;;;;;;4968466;28;20451;-78
2021/06/13 03:25:49;;;;;;;4.43;3.67;;;20.60;99.90;;;;;;4982151;28;20447;-80
2021/06/13 03:28:18;;;;;;;5.70;3.97;;;20.60;99.90;;;;;;4980214;28;20474;-79
2021/06/13 03:30:46;;;;;;;3.90;3.60;;;20.70;99.90;;;;;;4974483;28;20522;-82
2021/06/13 03:33:15;;;;;;;7.00;3.40;;;20.60;99.90;;;;;;4969490;28;20502;-80
2021/06/13 03:35:45;;;;;;;4.80;3.53;;;20.60;99.90;;;;;;4969009;28;20451;-78
2021/06/13 03:38:15;;;;;;;4.93;3.23;;;20.60;99.90;;;;;;4969329;28;20962;-79
2021/06/13 03:40:44;;;;;;;4.80;3.50;;;20.60;99.90;;;;;;4987894;28;20481;-78
2021/06/13 03:43:13;;;;;;;5.30;3.20;;;20.60;99.90;;;;;;4988632;28;20442;-79
2021/06/13 03:45:43;;;;;;;3.90;3.23;;;20.60;99.90;;;;;;4990185;28;20467;-78
2021/06/13 03:48:13;;;;;;;5.13;3.60;;;20.60;99.90;;;;;;4983844;28;20482;-77
2021/06/13 03:50:43;;;;;;;4.97;2.83;;;20.60;99.90;;;;;;4982911;28;20470;-78
2021/06/13 03:53:14;;;;;;;4.23;3.10;;;20.60;99.90;;;;;;4968620;28;20995;-79
2021/06/13 03:55:43;;;;;;;2.70;2.30;;;20.50;99.90;;;;;;4989856;28;20434;-80
2021/06/13 03:58:12;;;;;;;5.50;2.67;;;20.50;99.90;;;;;;4988731;28;20518;-79
2021/06/13 04:00:42;;;;;;;6.00;2.63;;;20.50;99.90;;;;;;4984138;28;20467;-76
2021/06/13 04:03:17;;;;;;;3.33;2.70;;;20.50;99.90;;;;;;4967766;28;20455;-78
2021/06/13 04:05:47;;;;;;;4.07;2.73;;;20.40;99.90;;;;;;4987505;28;20458;-80
2021/06/13 04:08:18;;;;;;;4.83;3.00;;;20.40;99.90;;;;;;4977054;28;20523;-80
2021/06/13 04:10:51;;;;;;;3.80;2.93;;;20.40;99.90;;;;;;4970149;28;20507;-80
2021/06/13 04:13:20;;;;;;;5.40;4.60;;;20.40;99.90;;;;;;4986259;28;20486;-84
2021/06/13 04:15:49;;;;;;;4.10;2.90;;;20.40;99.90;;;;;;4984389;28;20554;-80
2021/06/13 04:18:18;;;;;;;3.17;2.17;;;20.40;99.90;;;;;;4969580;28;20466;-80
2021/06/13 04:20:47;;;;;;;3.50;2.70;;;20.30;99.90;;;;;;4968595;28;20466;-80
2021/06/13 04:23:17;;;;;;;4.33;2.80;;;20.30;99.90;;;;;;4980171;28;20446;-80
2021/06/13 04:25:46;;;;;;;3.97;2.40;;;20.30;99.90;;;;;;4977506;28;20443;-79
2021/06/13 04:28:15;;;;;;;4.43;2.00;;;20.30;99.90;;;;;;4977952;28;20477;-78
2021/06/13 04:31:05;;;;;;;5.83;3.10;;;20.40;99.90;;;;;;4990946;28;20913;-78
2021/06/13 04:33:35;;;;;;;4.43;2.40;;;20.30;99.90;;;;;;4991161;28;20489;-76
2021/06/13 04:36:03;;;;;;;4.03;2.30;;;20.30;99.90;;;;;;4992148;28;20445;-81
2021/06/13 04:38:33;;;;;;;4.83;2.47;;;20.30;99.90;;;;;;4990236;28;20501;-78
2021/06/13 04:41:02;;;;;;;3.00;2.23;;;20.30;99.90;;;;;;4990060;28;20443;-80
2021/06/13 04:43:31;;;;;;;3.53;2.43;;;20.40;99.90;;;;;;4971661;28;20455;-81
2021/06/13 04:46:05;;;;;;;3.60;3.30;;;20.40;99.90;;;;;;4970906;28;20872;-81
2021/06/13 04:48:33;;;;;;;4.70;2.73;;;20.30;99.90;;;;;;4982585;28;20482;-80
2021/06/13 04:51:03;;;;;;;4.43;2.80;;;20.30;99.90;;;;;;4983194;28;20462;-81
2021/06/13 04:53:52;;;;;;;6.93;2.87;;;20.30;99.90;;;;;;4987895;28;20466;-80
2021/06/13 04:56:29;;;;;;;5.10;2.77;;;20.30;99.90;;;;;;4986592;28;20486;-80
2021/06/13 04:58:58;;;;;;;3.43;2.67;;;20.30;99.90;;;;;;4977822;28;20489;-80
2021/06/13 05:01:27;;;;;;;3.87;2.70;;;20.40;99.90;;;;;;4978016;28;20984;-79
2021/06/13 05:03:55;;;;;;;5.43;3.30;;;20.30;99.90;;;;;;4971611;28;20444;-82
2021/06/13 05:06:23;;;;;;;3.23;2.93;;;20.40;99.90;;;;;;4971545;28;20447;-82
2021/06/13 05:08:53;;;;;;;8.50;3.13;;;20.30;99.90;;;;;;4972333;28;20474;-81
2021/06/13 05:11:21;;;;;;;4.07;2.70;;;20.30;99.90;;;;;;4956786;28;20487;-83
2021/06/13 05:13:49;;;;;;;4.93;2.60;;;20.30;99.90;;;;;;4987573;28;20510;-82
2021/06/13 05:16:17;;;;;;;3.13;2.60;;;20.40;99.90;;;;;;4962360;28;20874;-83
2021/06/13 05:18:45;;;;;;;4.80;2.77;;;20.30;99.90;;;;;;4970765;28;20554;-80
2021/06/13 05:21:13;;;;;;;3.30;3.00;;;20.30;99.90;;;;;;4971405;28;20507;-82
2021/06/13 05:23:41;;;;;;;5.30;3.70;;;20.40;99.90;;;;;;4972314;28;21040;-80
2021/06/13 05:26:11;;;;;;;3.23;2.60;;;20.40;99.90;;;;;;4971401;28;20443;-80
2021/06/13 05:28:40;;;;;;;4.27;2.23;;;20.40;99.90;;;;;;4971923;28;20471;-80
2021/06/13 05:31:08;;;;;;;4.33;2.90;;;20.40;99.90;;;;;;4971332;28;20463;-80
2021/06/13 05:33:37;;;;;;;3.30;3.00;;;20.40;99.90;;;;;;4974781;28;20470;-82
2021/06/13 05:36:05;;;;;;;3.23;2.93;;;20.40;99.90;;;;;;4969508;28;20439;-81
2021/06/13 05:38:33;;;;;;;4.50;3.03;;;20.30;99.90;;;;;;4970213;28;20942;-80
2021/06/13 05:41:02;;;;;;;2.30;2.10;;;20.40;99.90;;;;;;4969726;28;21170;-80
2021/06/13 05:43:31;;;;;;;4.87;3.17;;;20.40;99.90;;;;;;4987654;28;20699;-81
2021/06/13 05:46:01;;;;;;;3.60;2.63;;;20.30;99.90;;;;;;4983075;28;20510;-79
2021/06/13 05:48:30;;;;;;;3.33;2.60;;;20.40;99.90;;;;;;4971025;28;20478;-83
2021/06/13 05:50:58;;;;;;;3.63;2.47;;;20.40;99.90;;;;;;4970930;28;20525;-81
2021/06/13 05:53:26;;;;;;;4.30;3.07;;;20.40;99.90;;;;;;4986286;28;20470;-80
2021/06/13 05:55:54;;;;;;;4.20;2.57;;;20.40;99.90;;;;;;4989620;28;20482;-80
2021/06/13 05:58:23;;;;;;;3.30;3.00;;;20.50;99.90;;;;;;4980553;28;20679;-82
2021/06/13 06:00:52;;;;;;;5.43;2.70;;;20.50;99.90;;;;;;4970948;28;20498;-79
2021/06/13 06:03:22;;;;;;;3.00;2.40;;;20.50;99.90;;;;;;4977662;28;20562;-82
2021/06/13 06:05:51;;;;;;;3.00;2.43;;;20.50;99.90;;;;;;4971064;28;20506;-81
2021/06/13 06:08:19;;;;;;;3.17;2.10;;;20.50;99.90;;;;;;4968763;28;20486;-80
2021/06/13 06:10:49;;;;;;;3.43;3.23;;;20.60;99.90;;;;;;4976303;28;20566;-79
2021/06/13 06:13:17;;;;;;;3.27;2.20;;;20.60;99.90;;;;;;4970469;28;20469;-81
2021/06/13 06:15:46;;;;;;;3.80;2.53;;;20.60;99.90;;;;;;4970031;28;20463;-81
2021/06/13 06:18:15;;;;;;;12.13;6.80;;;20.60;99.90;;;;;;4969281;28;20943;-81
2021/06/13 06:20:45;;;;;;;3.30;3.00;;;20.70;99.90;;;;;;4971018;28;20475;-80
2021/06/13 06:23:13;;;;;;;2.80;2.10;;;20.70;99.90;;;;;;4970186;28;20877;-82
2021/06/13 06:25:41;;;;;;;3.30;2.20;;;20.70;99.90;;;;;;4971151;28;20462;-81
2021/06/13 06:28:09;;;;;;;3.73;2.10;;;20.70;99.90;;;;;;4970052;28;20462;-83
2021/06/13 06:30:38;;;;;;;5.50;2.10;;;20.70;99.90;;;;;;4970739;28;20482;-81
2021/06/13 06:33:06;;;;;;;3.20;2.90;;;20.70;99.90;;;;;;4970023;28;20451;-81
2021/06/13 06:35:36;;;;;;;2.80;2.30;;;20.70;99.90;;;;;;4971296;28;20636;-82
2021/06/13 06:38:08;;;;;;;4.63;2.23;;;20.70;99.90;;;;;;4970859;28;20444;-80
2021/06/13 06:40:36;;;;;;;5.00;2.13;;;20.80;99.90;;;;;;4971090;28;20962;-80
2021/06/13 06:43:04;;;;;;;3.57;2.27;;;20.80;99.90;;;;;;4968563;28;20444;-79
2021/06/13 06:45:33;;;;;;;3.30;2.60;;;20.90;99.90;;;;;;4972491;28;20708;-81
2021/06/13 06:48:01;;;;;;;2.73;2.10;;;21.00;99.90;;;;;;4989310;28;20846;-78
2021/06/13 06:50:29;;;;;;;5.33;2.47;;;21.00;99.90;;;;;;4990298;28;20474;-78
2021/06/13 06:52:59;;;;;;;5.43;2.60;;;21.00;99.90;;;;;;4989382;28;21044;-79
2021/06/13 06:55:27;;;;;;;2.23;2.03;;;21.00;99.90;;;;;;4974845;28;20559;-78
2021/06/13 06:57:56;;;;;;;2.90;2.00;;;21.00;99.90;;;;;;4969528;28;20521;-80
2021/06/13 07:00:24;;;;;;;4.73;2.00;;;21.10;99.90;;;;;;4969539;28;20463;-78
2021/06/13 07:02:52;;;;;;;3.27;2.27;;;21.30;99.90;;;;;;4967965;28;20455;-81
2021/06/13 07:05:20;;;;;;;2.50;2.30;;;21.40;99.90;;;;;;4970824;28;20461;-83
2021/06/13 07:07:49;;;;;;;5.87;2.33;;;21.60;99.90;;;;;;4968481;28;20457;-80
2021/06/13 07:10:18;;;;;;;4.13;2.30;;;21.70;99.90;;;;;;4985227;28;21016;-83
2021/06/13 07:12:47;;;;;;;4.50;2.47;;;21.80;99.90;;;;;;4988954;28;20881;-82
2021/06/13 07:15:16;;;;;;;2.87;2.60;;;21.90;99.90;;;;;;4978319;28;20447;-79
2021/06/13 07:17:44;;;;;;;2.40;2.20;;;22.00;99.90;;;;;;4969495;28;21051;-78
2021/06/13 07:20:14;;;;;;;2.30;2.10;;;22.00;99.90;;;;;;4970366;28;20920;-79
2021/06/13 07:22:43;;;;;;;3.70;2.07;;;22.10;99.90;;;;;;4969575;28;20939;-77
2021/06/13 07:25:12;;;;;;;2.70;2.00;;;22.10;99.90;;;;;;4970542;28;20447;-79
2021/06/13 07:27:42;;;;;;;2.37;2.17;;;22.20;99.90;;;;;;4967767;28;20973;-78
2021/06/13 07:30:12;;;;;;;3.13;1.80;;;22.10;99.90;;;;;;4968513;28;20491;-76
2021/06/13 07:32:40;;;;;;;2.43;2.00;;;22.10;99.90;;;;;;4969605;28;20955;-76
2021/06/13 07:35:11;;;;;;;3.50;1.90;;;22.10;99.90;;;;;;4970576;28;20520;-79
2021/06/13 07:37:40;;;;;;;6.90;2.10;;;22.10;99.90;;;;;;4969690;28;20457;-81
2021/06/13 07:40:09;;;;;;;4.07;2.70;;;22.00;99.90;;;;;;4969761;28;20481;-79
2021/06/13 07:42:38;;;;;;;2.60;2.30;;;22.00;99.90;;;;;;4968448;28;20814;-83
2021/06/13 07:45:10;;;;;;;1.70;1.60;;;22.10;99.90;;;;;;4969953;28;20458;-81
2021/06/13 07:47:39;;;;;;;5.33;1.80;;;22.10;99.90;;;;;;4969866;28;20478;-81
2021/06/13 07:50:11;;;;;;;5.83;2.83;;;22.00;99.90;;;;;;4969460;28;20548;-81
2021/06/13 07:52:40;;;;;;;2.13;1.90;;;22.10;99.90;;;;;;4969627;28;20439;-78
2021/06/13 07:55:13;;;;;;;3.67;2.10;;;22.00;99.90;;;;;;4969511;28;21026;-80
2021/06/13 07:57:42;;;;;;;2.23;1.83;;;21.90;99.90;;;;;;4972816;28;20440;-78
2021/06/13 08:00:13;;;;;;;3.70;2.40;;;22.00;99.90;;;;;;4974547;28;20490;-81
2021/06/13 08:02:44;;;;;;;2.77;1.97;;;22.10;99.90;;;;;;4973855;28;20482;-79
2021/06/13 08:05:15;;;;;;;3.87;2.10;;;22.20;99.90;;;;;;4972805;28;20453;-80
2021/06/13 08:07:44;;;;;;;3.83;2.30;;;22.20;99.90;;;;;;4985552;28;20515;-78
2021/06/13 08:10:13;;;;;;;4.77;2.20;;;22.20;99.90;;;;;;4972780;28;20537;-79
2021/06/13 08:12:41;;;;;;;3.13;2.17;;;22.20;99.90;;;;;;4973784;28;20462;-79
2021/06/13 08:15:13;;;;;;;2.77;2.03;;;22.20;99.90;;;;;;4971017;28;20456;-78
2021/06/13 08:17:42;;;;;;;4.40;2.37;;;22.20;99.90;;;;;;4972431;28;20954;-79
2021/06/13 08:20:12;;;;;;;2.73;2.30;;;22.20;99.90;;;;;;4972373;28;20491;-78
2021/06/13 08:22:40;;;;;;;2.83;1.90;;;22.30;99.90;;;;;;4973822;28;20458;-79
2021/06/13 08:25:10;;;;;;;2.40;1.90;;;22.40;99.90;;;;;;4972897;28;20454;-79
2021/06/13 08:27:38;;;;;;;2.70;2.10;;;22.40;99.90;;;;;;4973717;28;20497;-79
2021/06/13 08:30:08;;;;;;;7.90;2.27;;;22.50;99.90;;;;;;4971941;28;20827;-78
2021/06/13 08:32:39;;;;;;;2.97;2.77;;;22.60;99.90;;;;;;4973813;28;20459;-76
2021/06/13 08:35:09;;;;;;;5.40;2.63;;;22.60;99.90;;;;;;4972335;28;20533;-77
2021/06/13 08:37:38;;;;;;;2.30;2.10;;;22.60;99.90;;;;;;4973400;28;20451;-80
2021/06/13 08:40:10;;;;;;;3.67;2.00;;;22.60;99.90;;;;;;4970175;28;20938;-78
2021/06/13 08:42:39;;;;;;;3.60;2.40;;;22.60;99.90;;;;;;4973210;28;20454;-80
2021/06/13 08:45:10;;;;;;;3.37;1.87;;;22.60;99.90;;;;;;4982958;28;20469;-80
2021/06/13 08:47:40;;;;;;;2.60;2.13;;;22.60;99.90;;;;;;4992755;28;20904;-80
2021/06/13 08:50:10;;;;;;;3.10;2.10;;;22.60;99.90;;;;;;4989615;28;20513;-80
2021/06/13 08:52:39;;;;;;;3.17;1.80;;;22.60;99.90;;;;;;4990824;28;20520;-78
2021/06/13 08:55:08;;;;;;;1.90;1.80;;;22.70;99.90;;;;;;4981098;28;20491;-81
2021/06/13 08:57:40;;;;;;;4.47;2.70;;;22.80;99.90;;;;;;4972586;28;20542;-79
2021/06/13 09:00:10;;;;;;;5.60;2.30;;;22.80;99.90;;;;;;4971599;28;21154;-77
2021/06/13 09:02:40;;;;;;;3.50;2.33;;;22.80;99.90;;;;;;4971387;28;20472;-84
2021/06/13 09:05:10;;;;;;;2.40;2.20;;;22.80;99.90;;;;;;4981525;28;21155;-84
2021/06/13 09:07:48;;;;;;;3.93;2.30;;;22.80;99.90;;;;;;4991406;28;20449;-77
2021/06/13 09:10:19;;;;;;;2.20;2.00;;;22.90;99.90;;;;;;4989974;28;20476;-80
2021/06/13 09:12:48;;;;;;;4.07;2.50;;;22.90;99.90;;;;;;4977625;28;20463;-78
2021/06/13 09:15:17;;;;;;;1.90;1.80;;;22.90;99.90;;;;;;4963889;28;20551;-80
2021/06/13 09:17:47;;;;;;;4.40;2.33;;;23.00;99.90;;;;;;4969074;28;20459;-82
2021/06/13 09:20:22;;;;;;;6.90;2.40;;;23.00;99.90;;;;;;4970110;28;20514;-79
2021/06/13 09:23:09;;;;;;;2.40;1.80;;;23.00;99.90;;;;;;4970114;28;20447;-81
2021/06/13 09:25:40;;;;;;;2.50;2.30;;;23.00;99.90;;;;;;4971138;28;20454;-84
2021/06/13 09:28:11;;;;;;;2.50;2.13;;;23.00;99.90;;;;;;4952060;28;20448;-78
2021/06/13 09:30:42;;;;;;;3.70;1.87;;;23.00;99.90;;;;;;4957407;28;20479;-80
2021/06/13 09:33:17;;;;;;;5.27;1.83;;;23.10;99.90;;;;;;4969667;28;20451;-78
2021/06/13 09:35:47;;;;;;;3.33;2.20;;;23.10;99.90;;;;;;4975866;28;20512;-78
2021/06/13 09:38:18;;;;;;;2.43;1.90;;;23.20;99.90;;;;;;4980033;28;20471;-82
2021/06/13 09:40:51;;;;;;;3.30;2.33;;;23.20;99.90;;;;;;4969067;28;20515;-78
2021/06/13 09:43:23;;;;;;;2.90;2.10;;;23.10;99.90;;;;;;4970198;28;20514;-80
2021/06/13 09:46:00;;;;;;;3.80;2.40;;;23.20;99.90;;;;;;4972127;28;20466;-80
2021/06/13 09:48:31;;;;;;;2.03;1.80;;;23.20;99.90;;;;;;4978806;28;20476;-79
2021/06/13 09:51:02;;;;;;;3.00;2.60;;;23.20;99.90;;;;;;4991262;28;20473;-79
2021/06/13 09:53:45;;;;;;;2.33;2.13;;;23.20;99.90;;;;;;4990621;28;20466;-79
2021/06/13 09:56:25;;;;;;;4.30;2.00;;;23.20;99.90;;;;;;4991692;28;20485;-78
2021/06/13 09:59:02;;;;;;;6.10;1.90;;;23.30;99.90;;;;;;4978692;28;20474;-78
2021/06/13 10:01:33;;;;;;;1.80;1.70;;;23.30;99.90;;;;;;4971215;28;20437;-80
2021/06/13 10:04:03;;;;;;;1.80;1.70;;;23.30;99.90;;;;;;4982085;28;20489;-78
2021/06/13 10:06:33;;;;;;;2.83;1.70;;;23.40;99.90;;;;;;4970771;28;20435;-79
2021/06/13 10:09:03;;;;;;;2.43;1.80;;;23.50;99.90;;;;;;4969391;28;20463;-79
2021/06/13 10:11:32;;;;;;;3.87;1.60;;;23.50;99.90;;;;;;4969327;28;20489;-79
2021/06/13 10:14:02;;;;;;;2.13;1.60;;;23.50;99.90;;;;;;4971138;28;20869;-78
2021/06/13 10:16:33;;;;;;;2.63;2.30;;;23.50;99.90;;;;;;4967838;28;20607;-79
2021/06/13 10:19:06;;;;;;;5.47;2.23;;;23.60;99.90;;;;;;4970022;28;20498;-79
2021/06/13 10:21:36;;;;;;;3.97;2.00;;;23.60;99.90;;;;;;4970165;28;20455;-80
2021/06/13 10:24:07;;;;;;;2.07;1.93;;;23.50;99.90;;;;;;4988567;28;20762;-79
2021/06/13 10:26:38;;;;;;;2.00;1.80;;;23.60;99.90;;;;;;4977038;28;20459;-78
2021/06/13 10:29:07;;;;;;;2.70;1.70;;;23.60;99.90;;;;;;4971044;28;20469;-78
2021/06/13 10:31:36;;;;;;;2.57;1.70;;;23.60;99.90;;;;;;4969574;28;20533;-83
2021/06/13 10:34:06;;;;;;;3.00;1.80;;;23.60;99.90;;;;;;4969967;28;20530;-79
2021/06/13 10:36:36;;;;;;;2.73;1.30;;;23.70;99.90;;;;;;4970505;28;21163;-78
2021/06/13 10:39:06;;;;;;;2.60;1.40;;;23.70;99.90;;;;;;4970678;28;20835;-79
2021/06/13 10:41:34;;;;;;;1.43;1.33;;;23.70;99.90;;;;;;4968659;28;20438;-78
2021/06/13 10:44:05;;;;;;;1.50;1.40;;;23.80;99.90;;;;;;4969496;28;20493;-80
2021/06/13 10:46:36;;;;;;;3.70;1.43;;;23.80;99.90;;;;;;4974996;28;20458;-80
2021/06/13 10:49:26;;;;;;;2.20;1.40;;;23.80;99.90;;;;;;4971169;28;20479;-79
2021/06/13 10:52:08;;;;;;;3.17;1.60;;;23.90;99.90;;;;;;4970011;28;20514;-78
2021/06/13 10:54:38;;;;;;;2.33;1.47;;;23.80;99.90;;;;;;4985213;28;21010;-78
2021/06/13 10:57:26;;;;;;;1.60;1.50;;;23.80;99.90;;;;;;4969816;28;20443;-79
2021/06/13 10:59:55;;;;;;;2.90;1.70;;;23.80;99.90;;;;;;4970120;28;20505;-82
2021/06/13 11:02:26;;;;;;;2.17;1.80;;;23.80;99.90;;;;;;4970254;28;20432;-78
2021/06/13 11:04:58;;;;;;;2.93;1.47;;;23.80;99.90;;;;;;4970225;28;20443;-78
2021/06/13 11:07:55;;;;;;;4.43;1.50;;;23.90;99.90;;;;;;4969474;28;20435;-78
2021/06/13 11:10:31;;;;;;;1.93;1.50;;;24.00;99.90;;;;;;4968579;28;20513;-78
2021/06/13 11:13:09;;;;;;;5.60;1.80;;;24.00;99.90;;;;;;4971535;28;20536;-79
2021/06/13 11:16:02;;;;;;;2.30;1.40;;;24.10;99.90;;;;;;4981415;28;20454;-79
2021/06/13 11:18:32;;;;;;;3.63;1.50;;;24.10;99.90;;;;;;4950849;28;20916;-80
2021/06/13 11:21:07;;;;;;;2.70;1.73;;;24.10;99.90;;;;;;4981980;28;20450;-80
2021/06/13 11:23:53;;;;;;;2.53;1.30;;;24.10;99.90;;;;;;4990042;28;20549;-80
2021/06/13 11:26:36;;;;;;;2.27;1.40;;;24.20;99.90;;;;;;4989404;28;21005;-78
2021/06/13 11:29:14;;;;;;;1.83;1.40;;;24.20;99.90;;;;;;4985836;28;20462;-78
2021/06/13 11:31:47;;;;;;;2.10;1.30;;;24.20;99.90;;;;;;4952566;28;20526;-80
2021/06/13 11:34:15;;;;;;;2.30;1.30;;;24.20;99.90;;;;;;4954411;28;21093;-78
2021/06/13 11:36:46;;;;;;;1.50;1.40;;;24.10;99.90;;;;;;4953735;29;20515;-79
2021/06/13 11:39:25;;;;;;;1.83;1.27;;;24.20;99.90;;;;;;4954064;28;20495;-79
2021/06/13 11:42:15;;;;;;;2.63;1.30;;;24.20;99.90;;;;;;4968095;28;20497;-80
2021/06/13 11:44:45;;;;;;;2.00;1.30;;;24.30;99.90;;;;;;4973996;28;20443;-82
2021/06/13 11:47:32;;;;;;;1.30;1.20;;;24.40;99.90;;;;;;4974183;28;20447;-79
2021/06/13 11:50:02;;;;;;;1.80;1.70;;;24.40;99.90;;;;;;4972921;28;20479;-78
2021/06/13 11:53:06;;;;;;;1.20;1.10;;;24.40;99.90;;;;;;4988370;28;20473;-80
2021/06/13 11:55:56;;;;;;;1.40;1.30;;;24.40;99.90;;;;;;4937845;29;20997;-77
2021/06/13 11:58:24;;;;;;;1.60;1.20;;;24.40;99.90;;;;;;4953649;29;20542;-77
2021/06/13 12:00:57;;;;;;;1.10;1.00;;;24.40;99.90;;;;;;4953034;28;20468;-75
2021/06/13 12:03:26;;;;;;;1.43;1.10;;;24.50;99.90;;;;;;4958025;28;20447;-78
2021/06/13 12:06:03;;;;;;;2.80;1.10;;;24.50;99.90;;;;;;4973623;28;20435;-79
2021/06/13 12:08:40;;;;;;;2.27;1.13;;;24.50;99.90;;;;;;4973382;28;20443;-78
2021/06/13 12:11:09;;;;;;;2.00;1.20;;;24.60;99.90;;;;;;4973663;28;20434;-77
2021/06/13 12:13:37;;;;;;;2.20;1.30;;;24.60;99.90;;;;;;4972526;28;20482;-76
2021/06/13 12:16:23;;;;;;;1.17;1.07;;;24.60;99.90;;;;;;4972809;28;20859;-79
2021/06/13 12:19:04;;;;;;;1.67;1.20;;;24.60;99.90;;;;;;4972751;28;20502;-78
2021/06/13 12:21:33;;;;;;;4.07;1.27;;;24.60;99.90;;;;;;4973688;28;20938;-78
2021/06/13 12:24:22;;;;;;;1.63;1.20;;;24.60;99.90;;;;;;4972538;28;20451;-75
2021/06/13 12:29:38;;;;;;;1.23;1.13;;;24.70;99.90;;;;;;4988360;28;20934;-81
2021/06/13 12:32:15;;;;;;;1.73;1.17;;;24.70;99.90;;;;;;4991038;28;20470;-82
2021/06/13 12:34:45;;;;;;;1.17;1.07;;;24.80;99.90;;;;;;4992269;28;20450;-80
2021/06/13 12:37:17;;;;;;;1.87;1.13;;;24.80;99.90;;;;;;4989007;28;20530;-79
2021/06/13 12:39:56;;;;;;;2.53;1.00;;;24.90;99.90;;;;;;4972697;28;20482;-81
2021/06/13 12:42:25;;;;;;;2.27;1.00;;;24.90;99.90;;;;;;4970411;28;20451;-78
2021/06/13 12:45:01;;;;;;;0.90;0.90;;;24.90;99.90;;;;;;4971796;28;20802;-80
2021/06/13 12:47:30;;;;;;;1.53;1.00;;;25.00;99.90;;;;;;4972092;28;21232;-76
2021/06/13 12:49:59;;;;;;;1.67;1.20;;;25.00;99.90;;;;;;4989532;28;21005;-76
2021/06/13 12:52:28;;;;;;;1.60;1.50;;;25.00;99.90;;;;;;4990969;28;20896;-77
2021/06/13 12:55:05;;;;;;;1.47;1.30;;;24.90;99.90;;;;;;4982057;28;20456;-77
2021/06/13 12:57:33;;;;;;;3.37;1.30;;;25.00;99.90;;;;;;4972296;28;20443;-79
2021/06/13 13:00:04;;;;;;;1.33;0.90;;;25.00;99.90;;;;;;4971836;28;20569;-78
2021/06/13 13:02:32;;;;;;;1.93;1.00;;;25.00;99.90;;;;;;4971696;28;20487;-79
2021/06/13 13:05:00;;;;;;;0.90;0.90;;;25.00;99.90;;;;;;4973126;28;20462;-80
2021/06/13 13:07:33;;;;;;;2.10;1.00;;;25.00;99.90;;;;;;4971524;28;20452;-79